createdAt,value
2023-07-12T00:02:24.813Z,100465.66
2023-07-12T00:04:51.302Z,100469.94
2023-07-12T00:07:17.675Z,100472.97
2023-07-12T00:09:44.074Z,100475.97
2023-07-12T00:12:10.497Z,100474.94
2023-07-12T00:14:36.883Z,100473.72
2023-07-12T00:17:03.315Z,100479.75
2023-07-12T00:19:29.724Z,100479.25
2023-07-12T00:21:56.121Z,100481.47
2023-07-12T00:24:22.528Z,100483.22
2023-07-12T00:26:48.913Z,100488.53
2023-07-12T00:29:15.311Z,100485.50
2023-07-12T00:31:41.716Z,100476.47
2023-07-12T00:34:08.163Z,100488.00
2023-07-12T00:36:34.614Z,100474.69
2023-07-12T00:39:01.034Z,100481.97
2023-07-12T00:41:27.422Z,100482.00
2023-07-12T00:43:53.769Z,100485.78
2023-07-12T00:46:20.240Z,100477.50
2023-07-12T00:48:46.926Z,100492.50
2023-07-12T00:51:13.319Z,100498.53
2023-07-12T00:53:39.833Z,100496.03
2023-07-12T00:56:06.206Z,100503.56
2023-07-12T00:58:32.565Z,100502.31
2023-07-12T01:00:58.945Z,100503.06
2023-07-12T01:03:25.388Z,100501.31
2023-07-12T01:05:51.818Z,100497.81
2023-07-12T01:08:18.236Z,100497.81
2023-07-12T01:10:44.697Z,100501.06
2023-07-12T01:13:11.081Z,100502.81
2023-07-12T01:15:37.492Z,100516.63
2023-07-12T01:18:03.965Z,100512.56
2023-07-12T01:20:30.376Z,100513.84
2023-07-12T01:22:56.772Z,100518.63
2023-07-12T01:25:23.183Z,100514.88
2023-07-12T01:27:49.574Z,100521.38
2023-07-12T01:30:15.944Z,100516.34
2023-07-12T01:32:42.446Z,100510.34
2023-07-12T01:35:08.866Z,100503.06
2023-07-12T01:37:35.280Z,100510.09
2023-07-12T01:40:01.722Z,100513.09
2023-07-12T01:42:28.115Z,100516.38
2023-07-12T01:44:54.502Z,100520.13
2023-07-12T01:47:20.859Z,100514.38
2023-07-12T01:49:47.216Z,100517.09
2023-07-12T01:52:13.567Z,100510.34
2023-07-12T01:54:39.967Z,100521.09
2023-07-12T01:57:06.333Z,100525.41
2023-07-12T01:59:34.283Z,100527.63
2023-07-12T02:02:00.757Z,100523.63
2023-07-12T02:04:27.215Z,100531.91
2023-07-12T02:06:53.629Z,100531.66
2023-07-12T02:09:20.030Z,100534.94
2023-07-12T02:11:46.437Z,100541.44
2023-07-12T02:14:12.858Z,100530.66
2023-07-12T02:16:39.272Z,100540.94
2023-07-12T02:19:05.670Z,100541.94
2023-07-12T02:21:32.055Z,100554.47
2023-07-12T02:23:58.447Z,100548.19
2023-07-12T02:26:24.841Z,100559.22
2023-07-12T02:28:51.256Z,100555.72
2023-07-12T02:31:17.788Z,100558.72
2023-07-12T02:33:44.173Z,100542.91
2023-07-12T02:36:10.539Z,100543.19
2023-07-12T02:38:36.937Z,100558.47
2023-07-12T02:41:03.341Z,100566.75
2023-07-12T02:43:29.735Z,100556.72
2023-07-12T02:45:56.100Z,100561.50
2023-07-12T02:48:22.514Z,100559.75
2023-07-12T02:50:48.892Z,100564.25
2023-07-12T02:53:15.289Z,100570.22
2023-07-12T02:55:41.704Z,100570.78
2023-07-12T02:58:08.139Z,100573.78
2023-07-12T03:00:34.510Z,100566.97
2023-07-12T03:03:00.885Z,100581.53
2023-07-12T03:05:27.309Z,100578.53
2023-07-12T03:07:53.686Z,100581.53
2023-07-12T03:10:20.087Z,100587.28
2023-07-12T03:12:46.490Z,100578.28
2023-07-12T03:15:12.872Z,100579.25
2023-07-12T03:17:39.316Z,100577.50
2023-07-12T03:20:05.719Z,100586.78
2023-07-12T03:22:32.180Z,100584.78
2023-07-12T03:24:58.585Z,100587.25
2023-07-12T03:27:25.012Z,100600.28
2023-07-12T03:29:51.391Z,100593.28
2023-07-12T03:32:17.747Z,100596.75
2023-07-12T03:34:44.231Z,100600.28
2023-07-12T03:37:10.594Z,100592.00
2023-07-12T03:39:36.953Z,100596.97
2023-07-12T03:42:03.340Z,100589.25
2023-07-12T03:44:29.770Z,100593.25
2023-07-12T03:46:56.182Z,100597.41
2023-07-12T03:49:22.553Z,100594.78
2023-07-12T03:51:48.946Z,100599.72
2023-07-12T03:54:15.354Z,100598.78
2023-07-12T03:56:41.732Z,100611.75
2023-07-12T03:59:08.094Z,100620.25
2023-07-12T04:01:34.580Z,100611.00
2023-07-12T04:04:01.101Z,100613.25
2023-07-12T04:06:27.566Z,100620.50
2023-07-12T04:08:53.924Z,100616.97
2023-07-12T04:11:20.303Z,100620.22
2023-07-12T04:13:46.784Z,100630.00
2023-07-12T04:16:13.213Z,100621.75
2023-07-12T04:18:39.672Z,100622.25
2023-07-12T04:21:06.337Z,100630.06
2023-07-12T04:23:32.840Z,100632.53
2023-07-12T04:25:59.259Z,100630.81
2023-07-12T04:28:25.670Z,100633.00
2023-07-12T04:30:52.082Z,100635.28
2023-07-12T04:33:18.475Z,100639.50
2023-07-12T04:35:44.889Z,100651.28
2023-07-12T04:38:11.303Z,100640.03
2023-07-12T04:40:37.669Z,100648.06
2023-07-12T04:43:04.109Z,100652.28
2023-07-12T04:45:30.542Z,100663.72
2023-07-12T04:47:56.988Z,100667.31
2023-07-12T04:50:23.390Z,100668.72
2023-07-12T04:52:49.884Z,100664.28
2023-07-12T04:55:16.269Z,100668.00
2023-07-12T04:57:42.611Z,100665.53
2023-07-12T05:00:08.989Z,100663.00
2023-07-12T05:02:35.382Z,100665.28
2023-07-12T05:05:01.811Z,100674.78
2023-07-12T05:07:28.229Z,100674.34
2023-07-12T05:09:54.734Z,100675.31
2023-07-12T05:12:21.088Z,100684.53
2023-07-12T05:14:47.469Z,100681.00
2023-07-12T05:17:13.846Z,100690.19
2023-07-12T05:19:40.236Z,100684.97
2023-07-12T05:22:06.655Z,100685.25
2023-07-12T05:24:33.025Z,100690.03
2023-07-12T05:26:59.469Z,100692.03
2023-07-12T05:29:25.876Z,100690.03
2023-07-12T05:31:52.325Z,100709.03
2023-07-12T05:34:18.759Z,100706.25
2023-07-12T05:36:45.159Z,100707.31
2023-07-12T05:39:11.508Z,100705.44
2023-07-12T05:41:37.890Z,100710.75
2023-07-12T05:44:04.268Z,100704.69
2023-07-12T05:46:30.702Z,100709.75
2023-07-12T05:48:57.112Z,100715.03
2023-07-12T05:51:23.505Z,100725.00
2023-07-12T05:53:50.038Z,100725.22
2023-07-12T05:56:16.465Z,100723.75
2023-07-12T05:58:42.859Z,100725.53
2023-07-12T06:01:09.500Z,100732.28
2023-07-12T06:03:36.063Z,100723.00
2023-07-12T06:06:02.540Z,100733.00
2023-07-12T06:08:28.958Z,100733.56
2023-07-12T06:10:55.356Z,100732.78
2023-07-12T06:13:21.726Z,100732.72
2023-07-12T06:15:48.090Z,100734.91
2023-07-12T06:18:14.603Z,100740.50
2023-07-12T06:20:41.173Z,100743.47
2023-07-12T06:23:07.572Z,100748.16
2023-07-12T06:25:33.961Z,100740.00
2023-07-12T06:28:00.356Z,100740.03
2023-07-12T06:30:26.932Z,100749.22
2023-07-12T06:32:53.315Z,100751.94
2023-07-12T06:35:19.738Z,100741.72
2023-07-12T06:37:46.125Z,100754.53
2023-07-12T06:40:12.562Z,100766.97
2023-07-12T06:42:39.036Z,100765.09
2023-07-12T06:45:05.404Z,100761.09
2023-07-12T06:47:31.866Z,100774.41
2023-07-12T06:49:58.245Z,100770.44
2023-07-12T06:52:24.614Z,100783.34
2023-07-12T06:54:51.023Z,100783.38
2023-07-12T06:57:17.397Z,100779.63
2023-07-12T06:59:43.808Z,100780.09
2023-07-12T07:02:10.221Z,100788.41
2023-07-12T07:04:36.777Z,100777.63
2023-07-12T07:07:03.164Z,100776.72
2023-07-12T07:09:29.566Z,100779.31
2023-07-12T07:11:55.923Z,100778.34
2023-07-12T07:14:22.275Z,100782.34
2023-07-12T07:16:48.651Z,100786.84
2023-07-12T07:19:15.216Z,100781.56
2023-07-12T07:21:41.655Z,100784.56
2023-07-12T07:24:08.016Z,100785.59
2023-07-12T07:26:34.419Z,100786.69
2023-07-12T07:29:00.826Z,100785.16
2023-07-12T07:31:27.261Z,100788.47
2023-07-12T07:33:53.672Z,100790.97
2023-07-12T07:36:20.075Z,100794.38
2023-07-12T07:38:46.444Z,100792.41
2023-07-12T07:41:12.826Z,100787.00
2023-07-12T07:43:39.252Z,100795.00
2023-07-12T07:46:05.668Z,100783.97
2023-07-12T07:48:32.189Z,100778.13
2023-07-12T07:50:58.574Z,100780.38
2023-07-12T07:53:24.943Z,100783.56
2023-07-12T07:55:51.405Z,100789.75
2023-07-12T07:58:17.774Z,100788.03
2023-07-12T08:00:46.465Z,100791.81
2023-07-12T08:03:14.508Z,100791.88
2023-07-12T08:05:41.035Z,100786.41
2023-07-12T08:08:07.530Z,100789.66
2023-07-12T08:10:34.210Z,100790.91
2023-07-12T08:13:00.605Z,100789.88
2023-07-12T08:15:27.024Z,100792.41
2023-07-12T08:17:53.612Z,100798.50
2023-07-12T08:20:20.126Z,100808.34
2023-07-12T08:22:46.569Z,100801.53
2023-07-12T08:25:12.984Z,100799.47
2023-07-12T08:27:39.335Z,100791.16
2023-07-12T08:30:05.691Z,100791.28
2023-07-12T08:32:32.147Z,100783.00
2023-07-12T08:34:58.562Z,100793.28
2023-07-12T08:37:24.951Z,100789.84
2023-07-12T08:39:51.350Z,100785.78
2023-07-12T08:42:17.773Z,100795.03
2023-07-12T08:44:44.134Z,100797.38
2023-07-12T08:47:10.499Z,100797.19
2023-07-12T08:49:36.886Z,100797.16
2023-07-12T08:52:03.305Z,100801.91
2023-07-12T08:54:29.719Z,100810.66
2023-07-12T08:56:56.085Z,100805.75
2023-07-12T08:59:22.459Z,100806.34
2023-07-12T09:01:49.059Z,100805.75
2023-07-12T09:04:15.490Z,100812.88
2023-07-12T09:06:41.925Z,100806.38
2023-07-12T09:09:09.103Z,100819.81
2023-07-12T09:11:35.540Z,100827.47
2023-07-12T09:14:01.984Z,100822.13
2023-07-12T09:16:28.432Z,100824.31
2023-07-12T09:18:54.875Z,100823.94
2023-07-12T09:21:21.247Z,100824.91
2023-07-12T09:23:47.622Z,100824.63
2023-07-12T09:26:14.038Z,100814.31
2023-07-12T09:28:40.397Z,100815.81
2023-07-12T09:31:06.939Z,100820.75
2023-07-12T09:33:33.448Z,100821.16
2023-07-12T09:35:59.855Z,100836.28
2023-07-12T09:38:26.242Z,100826.47
2023-07-12T09:40:52.632Z,100836.72
2023-07-12T09:43:19.038Z,100836.63
2023-07-12T09:45:59.680Z,100828.16
2023-07-12T09:48:31.782Z,100824.22
2023-07-12T09:50:58.128Z,100835.78
2023-07-12T09:53:24.520Z,100831.50
2023-07-12T09:55:50.893Z,100837.41
2023-07-12T09:58:17.344Z,100845.28
2023-07-12T10:00:43.846Z,100842.75
2023-07-12T10:03:10.266Z,100837.84
2023-07-12T10:05:36.730Z,100835.50
2023-07-12T10:08:03.127Z,100837.16
2023-07-12T10:10:29.518Z,100832.13
2023-07-12T10:12:55.918Z,100828.13
2023-07-12T10:15:22.332Z,100835.53
2023-07-12T10:17:48.747Z,100833.22
2023-07-12T10:20:15.189Z,100828.59
2023-07-12T10:22:41.603Z,100826.53
2023-07-12T10:25:08.013Z,100826.28
2023-07-12T10:27:34.411Z,100827.81
2023-07-12T10:30:00.815Z,100822.50
2023-07-12T10:32:27.196Z,100831.13
2023-07-12T10:34:53.590Z,100820.31
2023-07-12T10:37:19.964Z,100825.19
2023-07-12T10:39:46.335Z,100816.41
2023-07-12T10:42:12.746Z,100812.06
2023-07-12T10:44:39.093Z,100807.47
2023-07-12T10:47:05.543Z,100819.97
2023-07-12T10:49:32.234Z,100803.19
2023-07-12T10:51:58.609Z,100807.94
2023-07-12T10:54:25.009Z,100798.16
2023-07-12T10:56:51.367Z,100807.81
2023-07-12T10:59:17.721Z,100817.09
2023-07-12T11:01:44.074Z,100808.78
2023-07-12T11:04:10.432Z,100806.31
2023-07-12T11:06:36.837Z,100806.84
2023-07-12T11:09:03.257Z,100808.31
2023-07-12T11:11:29.614Z,100807.25
2023-07-12T11:13:55.980Z,100800.50
2023-07-12T11:16:22.410Z,100800.72
2023-07-12T11:18:48.865Z,100804.25
2023-07-12T11:21:15.311Z,100804.50
2023-07-12T11:23:41.714Z,100798.47
2023-07-12T11:26:08.088Z,100793.22
2023-07-12T11:28:34.491Z,100798.19
2023-07-12T11:31:00.927Z,100798.75
2023-07-12T11:33:27.351Z,100791.16
2023-07-12T11:35:53.716Z,100791.84
2023-07-12T11:38:20.132Z,100796.72
2023-07-12T11:40:46.548Z,100807.91
2023-07-12T11:43:13.143Z,100799.91
2023-07-12T11:45:39.567Z,100803.69
2023-07-12T11:48:06.289Z,100799.84
2023-07-12T11:50:32.738Z,100794.66
2023-07-12T11:52:59.168Z,100801.16
2023-07-12T11:55:25.612Z,100797.34
2023-07-12T11:57:52.036Z,100806.00
2023-07-12T12:00:18.495Z,100806.38
2023-07-12T12:02:44.928Z,100798.00
2023-07-12T12:05:11.425Z,100804.56
2023-07-12T12:07:37.922Z,100805.50
2023-07-12T12:10:06.275Z,100811.97
2023-07-12T12:12:32.960Z,100810.09
2023-07-12T12:14:59.747Z,100815.19
2023-07-12T12:17:26.238Z,100811.56
2023-07-12T12:19:52.873Z,100807.25
2023-07-12T12:22:19.777Z,100795.19
2023-07-12T12:24:46.377Z,100796.88
2023-07-12T12:27:19.802Z,100796.88
2023-07-12T12:29:47.459Z,100804.94
2023-07-12T12:32:13.903Z,100798.56
2023-07-12T12:34:40.378Z,100800.88
2023-07-12T12:37:06.775Z,100788.44
2023-07-12T12:39:33.148Z,100805.75
2023-07-12T12:41:59.569Z,100788.34
2023-07-12T12:44:25.966Z,100801.28
2023-07-12T12:47:04.839Z,100796.81
2023-07-12T12:54:39.766Z,100806.09
2023-07-12T13:07:05.583Z,100792.34
2023-07-12T13:19:32.480Z,100792.06
2023-07-12T13:21:59.147Z,100791.78
2023-07-12T13:24:25.672Z,100788.06
2023-07-12T13:26:52.080Z,100792.63
2023-07-12T13:29:18.493Z,100786.25
2023-07-12T13:31:44.943Z,100788.88
2023-07-12T13:34:11.814Z,100793.69
2023-07-12T13:36:40.152Z,100783.75
2023-07-12T13:46:34.472Z,100782.91
2023-07-12T13:49:00.836Z,100781.91
2023-07-12T13:51:27.187Z,100787.75
2023-07-12T13:53:53.591Z,100784.63
2023-07-12T13:59:15.951Z,100777.31
2023-07-12T14:04:05.023Z,100781.16
2023-07-12T14:06:54.582Z,100776.84
2023-07-12T14:09:17.889Z,100774.66
2023-07-12T14:11:44.343Z,100771.22
2023-07-12T14:14:10.742Z,100778.47
2023-07-12T14:16:37.109Z,100783.16
2023-07-12T14:19:03.497Z,100786.13
2023-07-12T14:21:29.847Z,100778.38
2023-07-12T14:23:56.265Z,100778.72
2023-07-12T14:26:22.676Z,100782.69
2023-07-12T14:28:55.464Z,100780.47
2023-07-12T14:31:22.599Z,100779.97
2023-07-12T14:33:49.063Z,100775.72
2023-07-12T14:36:15.458Z,100785.47
2023-07-12T14:38:43.914Z,100778.19
2023-07-12T14:41:10.979Z,100780.69
2023-07-12T14:43:37.325Z,100781.47
2023-07-12T14:46:03.731Z,100772.03
2023-07-12T14:48:30.149Z,100769.81
2023-07-12T14:50:56.506Z,100773.34
2023-07-12T14:53:22.902Z,100764.84
2023-07-12T14:55:49.273Z,100767.88
2023-07-12T14:58:20.593Z,100770.13
2023-07-12T15:00:47.941Z,100764.88
2023-07-12T15:03:14.608Z,100772.59
2023-07-12T15:05:41.100Z,100760.34
2023-07-12T15:08:07.504Z,100761.13
2023-07-12T15:10:33.865Z,100757.38
2023-07-12T15:13:00.411Z,100754.66
2023-07-12T15:15:26.879Z,100762.19
2023-07-12T15:17:53.404Z,100753.84
2023-07-12T15:20:19.936Z,100760.44
2023-07-12T15:22:46.785Z,100757.41
2023-07-12T15:25:13.227Z,100755.16
2023-07-12T15:27:39.603Z,100751.19
2023-07-12T15:30:05.974Z,100743.91
2023-07-12T15:32:32.362Z,100740.66
2023-07-12T15:34:58.777Z,100749.94
2023-07-12T15:37:25.179Z,100749.66
2023-07-12T15:39:51.601Z,100746.22
2023-07-12T15:42:18.014Z,100743.19
2023-07-12T15:44:44.409Z,100740.63
2023-07-12T15:47:10.804Z,100746.75
2023-07-12T15:49:37.363Z,100743.34
2023-07-12T15:52:03.750Z,100744.38
2023-07-12T15:54:30.099Z,100752.97
2023-07-12T15:56:56.492Z,100753.63
2023-07-12T15:59:22.887Z,100744.97
2023-07-12T16:01:49.304Z,100740.94
2023-07-12T16:04:15.724Z,100750.97
2023-07-12T16:06:42.140Z,100735.19
2023-07-12T16:09:09.885Z,100739.47
2023-07-12T16:11:37.133Z,100746.16
2023-07-12T16:14:03.493Z,100740.19
2023-07-12T16:16:29.875Z,100743.72
2023-07-12T16:18:56.345Z,100745.72
2023-07-12T16:21:22.751Z,100738.69
2023-07-12T16:23:49.184Z,100744.69
2023-07-12T16:26:15.555Z,100735.13
2023-07-12T16:28:41.922Z,100743.41
2023-07-12T16:31:08.394Z,100743.88
2023-07-12T16:33:34.774Z,100737.88
2023-07-12T16:36:01.201Z,100739.47
2023-07-12T16:38:27.580Z,100733.19
2023-07-12T16:40:54.005Z,100738.50
2023-07-12T16:43:20.414Z,100737.50
2023-07-12T16:45:46.788Z,100734.66
2023-07-12T16:48:13.184Z,100736.19
2023-07-12T16:50:39.593Z,100730.16
2023-07-12T16:53:06.031Z,100726.59
2023-07-12T16:55:32.479Z,100727.28
2023-07-12T16:57:58.836Z,100728.84
2023-07-12T17:00:25.238Z,100723.88
2023-07-12T17:02:51.764Z,100731.69
2023-07-12T17:05:18.264Z,100722.63
2023-07-12T17:07:44.691Z,100731.69
2023-07-12T17:10:11.039Z,100729.25
2023-07-12T17:12:37.442Z,100726.38
2023-07-12T17:15:03.900Z,100731.03
2023-07-12T17:17:30.352Z,100728.50
2023-07-12T17:19:56.831Z,100725.84
2023-07-12T17:22:23.311Z,100726.38
2023-07-12T17:24:50.817Z,100724.81
2023-07-12T17:27:17.238Z,100720.09
2023-07-12T17:29:43.600Z,100724.81
2023-07-12T17:32:09.998Z,100721.94
2023-07-12T17:34:36.445Z,100734.56
2023-07-12T17:37:02.822Z,100728.06
2023-07-12T17:39:29.219Z,100723.22
2023-07-12T17:41:55.660Z,100731.00
2023-07-12T17:44:22.015Z,100724.00
2023-07-12T17:46:48.416Z,100724.81
2023-07-12T17:49:14.826Z,100716.34
2023-07-12T17:51:41.242Z,100715.25
2023-07-12T17:54:07.622Z,100716.25
2023-07-12T17:56:34.014Z,100717.91
2023-07-12T17:59:00.386Z,100717.78
2023-07-12T18:01:26.827Z,100711.31
2023-07-12T18:03:53.356Z,100713.56
2023-07-12T18:06:19.832Z,100718.03
2023-07-12T18:08:46.220Z,100722.00
2023-07-12T18:11:12.587Z,100723.53
2023-07-12T18:13:38.985Z,100730.59
2023-07-12T18:16:05.428Z,100726.06
2023-07-12T18:18:31.828Z,100722.00
2023-07-12T18:20:58.199Z,100729.38
2023-07-12T18:23:24.589Z,100732.78
2023-07-12T18:25:51.032Z,100734.34
2023-07-12T18:28:17.438Z,100728.97
2023-07-12T18:30:43.837Z,100739.47
2023-07-12T18:33:10.214Z,100740.75
2023-07-12T18:35:36.625Z,100736.34
2023-07-12T18:38:03.011Z,100733.50
2023-07-12T18:40:29.419Z,100745.28
2023-07-12T18:42:55.871Z,100749.28
2023-07-12T18:45:22.288Z,100759.09
2023-07-12T18:47:48.708Z,100753.03
2023-07-12T18:50:15.278Z,100768.28
2023-07-12T18:52:41.692Z,100763.53
2023-07-12T18:55:08.136Z,100764.50
2023-07-12T18:57:34.491Z,100759.00
2023-07-12T19:00:00.886Z,100769.31
2023-07-12T19:02:27.304Z,100771.19
2023-07-12T19:04:53.755Z,100778.88
2023-07-12T19:07:20.189Z,100776.69
2023-07-12T19:09:46.572Z,100784.13
2023-07-12T19:12:12.978Z,100783.47
2023-07-12T19:14:39.404Z,100787.38
2023-07-12T19:17:05.879Z,100786.84
2023-07-12T19:19:32.309Z,100795.06
2023-07-12T19:21:58.686Z,100797.06
2023-07-12T19:24:25.144Z,100791.53
2023-07-12T19:26:53.083Z,100797.63
2023-07-12T19:29:21.417Z,100797.38
2023-07-12T19:31:47.990Z,100807.50
2023-07-12T19:34:14.465Z,100812.53
2023-07-12T19:36:40.870Z,100822.78
2023-07-12T19:39:07.269Z,100829.50
2023-07-12T19:41:33.649Z,100835.25
2023-07-12T19:44:00.056Z,100827.63
2023-07-12T19:46:26.530Z,100836.03
2023-07-12T19:48:52.935Z,100841.13
2023-07-12T19:51:19.364Z,100841.75
2023-07-12T19:53:45.738Z,100852.91
2023-07-12T19:56:12.469Z,100859.50
2023-07-12T19:58:39.032Z,100852.13
2023-07-12T20:01:05.423Z,100858.38
2023-07-12T20:03:31.917Z,100859.72
2023-07-12T20:05:58.535Z,100863.31
2023-07-12T20:08:26.494Z,100873.69
2023-07-12T20:10:52.865Z,100873.47
2023-07-12T20:13:19.261Z,100885.06
2023-07-12T20:15:45.694Z,100881.81
2023-07-12T20:18:12.182Z,100884.16
2023-07-12T20:20:42.285Z,100887.16
2023-07-12T20:23:09.234Z,100893.59
2023-07-12T20:25:35.638Z,100896.63
2023-07-12T20:28:02.330Z,100902.75
2023-07-12T20:30:29.505Z,100899.91
2023-07-12T20:32:55.936Z,100904.19
2023-07-12T20:35:22.408Z,100908.88
2023-07-12T20:37:48.802Z,100903.50
2023-07-12T20:40:15.209Z,100906.94
2023-07-12T20:42:41.586Z,100920.94
2023-07-12T20:45:10.934Z,100908.53
2023-07-12T20:47:38.383Z,100910.78
2023-07-12T20:50:04.771Z,100917.78
2023-07-12T20:52:31.167Z,100916.31
2023-07-12T20:54:57.532Z,100919.97
2023-07-12T20:57:23.912Z,100924.22
2023-07-12T20:59:50.290Z,100925.47
2023-07-12T21:02:16.691Z,100927.28
2023-07-12T21:04:43.115Z,100929.94
2023-07-12T21:07:09.522Z,100931.25
2023-07-12T21:09:35.924Z,100935.69
2023-07-12T21:12:02.341Z,100932.56
2023-07-12T21:14:28.738Z,100929.19
2023-07-12T21:16:55.156Z,100930.97
2023-07-12T21:19:21.568Z,100934.00
2023-07-12T21:21:47.966Z,100939.31
2023-07-12T21:24:14.373Z,100945.13
2023-07-12T21:26:40.828Z,100931.44
2023-07-12T21:29:07.251Z,100939.50
2023-07-12T21:31:33.773Z,100946.13
2023-07-12T21:34:00.271Z,100945.22
2023-07-12T21:36:26.690Z,100951.59
2023-07-12T21:38:53.142Z,100953.44
2023-07-12T21:41:19.567Z,100946.28
2023-07-12T21:43:46.000Z,100952.00
2023-07-12T21:46:12.578Z,100949.31
2023-07-12T21:48:39.304Z,100954.53
2023-07-12T21:51:05.738Z,100961.19
2023-07-12T21:53:32.211Z,100953.22
2023-07-12T21:55:58.605Z,100953.84
2023-07-12T21:58:25.153Z,100952.94
2023-07-12T22:00:51.677Z,100955.69
2023-07-12T22:03:18.144Z,100955.63
2023-07-12T22:05:44.567Z,100947.72
2023-07-12T22:08:11.080Z,100957.91
2023-07-12T22:10:37.487Z,100963.25
2023-07-12T22:13:03.993Z,100955.44
2023-07-12T22:15:30.421Z,100959.00
2023-07-12T22:17:56.898Z,100963.13
2023-07-12T22:20:23.282Z,100960.16
2023-07-12T22:22:49.775Z,100961.28
2023-07-12T22:25:16.174Z,100961.19
2023-07-12T22:27:42.571Z,100966.44
2023-07-12T22:30:08.977Z,100968.16
2023-07-12T22:32:35.420Z,100970.28
2023-07-12T22:35:01.882Z,100965.00
2023-07-12T22:37:28.270Z,100971.28
2023-07-12T22:39:54.676Z,100973.47
2023-07-12T22:42:21.056Z,100978.22
2023-07-12T22:44:47.652Z,100979.41
2023-07-12T22:47:14.073Z,100979.25
2023-07-12T22:49:40.627Z,100980.75
2023-07-12T22:52:07.012Z,100977.50
2023-07-12T22:54:33.588Z,100972.41
2023-07-12T22:57:00.075Z,100977.25
2023-07-12T22:59:26.509Z,100982.97
2023-07-12T23:01:52.933Z,100983.03
2023-07-12T23:04:19.341Z,100983.22
2023-07-12T23:06:45.723Z,100981.22
2023-07-12T23:09:12.111Z,100980.47
2023-07-12T23:11:38.498Z,100989.78
2023-07-12T23:14:04.940Z,100991.56
2023-07-12T23:16:31.377Z,100993.38
2023-07-12T23:18:57.823Z,100993.84
2023-07-12T23:21:24.201Z,100993.06
2023-07-12T23:23:50.630Z,100995.78
2023-07-12T23:26:17.002Z,101004.53
2023-07-12T23:28:43.389Z,100994.78
2023-07-12T23:31:09.827Z,100993.72
2023-07-12T23:33:36.260Z,100991.59
2023-07-12T23:36:02.658Z,101003.06
2023-07-12T23:38:29.059Z,100996.47
2023-07-12T23:40:55.477Z,100995.00
2023-07-12T23:43:21.922Z,101003.41
2023-07-12T23:45:48.348Z,100998.88
2023-07-12T23:48:14.744Z,100998.66
2023-07-12T23:50:41.129Z,100995.41
2023-07-12T23:53:07.529Z,101002.31
2023-07-12T23:55:33.927Z,100998.88
2023-07-12T23:58:00.280Z,100995.09
